Time;durP1;ratioP1;P1;durP2;ratioP2;P2;SDS_P1;SDS_P2;PMS_P1;PMS_P2;Temp;Humidity;BMP_temperature;BMP_pressure;BME280_temperature;BME280_humidity;BME280_pressure;Samples;Min_cycle;Max_cycle;Signal;HPM_P1;HPM_P2
2023/08/18 00:02:01;;;;;;;;;33.33;30.33;;;;;;;;5033382;28;47333;-82
2023/08/18 00:04:27;;;;;;;;;31.00;27.33;;;;;;;;5025972;28;47719;-82
2023/08/18 00:06:52;;;;;;;;;32.67;29.67;;;;;;;;5035944;28;45671;-87
2023/08/18 00:09:17;;;;;;;;;38.00;30.67;;;;;;;;5031917;28;45384;-84
2023/08/18 00:11:42;;;;;;;;;33.67;32.00;;;;;;;;5031800;28;46875;-82
2023/08/18 00:14:10;;;;;;;;;38.00;32.67;;;;;;;;5033197;28;47065;-81
2023/08/18 00:16:39;;;;;;;;;30.00;28.67;;;;;;;;5036127;28;45378;-81
2023/08/18 00:19:04;;;;;;;;;37.67;32.00;;;;;;;;5029366;28;45517;-80
2023/08/18 00:21:30;;;;;;;;;33.00;28.00;;;;;;;;5024547;28;45568;-81
2023/08/18 00:23:55;;;;;;;;;33.67;29.33;;;;;;;;5045583;28;45917;-81
2023/08/18 00:26:20;;;;;;;;;38.00;31.00;;;;;;;;5022932;28;46177;-80
2023/08/18 00:28:48;;;;;;;;;32.33;28.00;;;;;;;;5045567;28;45502;-81
2023/08/18 00:31:14;;;;;;;;;33.67;27.67;;;;;;;;5052140;28;45478;-80
2023/08/18 00:33:39;;;;;;;;;31.67;29.67;;;;;;;;5021678;28;45697;-77
2023/08/18 00:36:04;;;;;;;;;40.00;32.00;;;;;;;;5022996;28;45663;-81
2023/08/18 00:38:29;;;;;;;;;30.33;26.67;;;;;;;;5053305;28;45337;-78
2023/08/18 00:40:55;;;;;;;;;34.33;30.67;;;;;;;;5053045;28;45417;-80
2023/08/18 00:43:21;;;;;;;;;34.00;31.33;;;;;;;;5049869;28;45387;-81
2023/08/18 00:45:46;;;;;;;;;34.67;28.67;;;;;;;;5040840;28;45471;-79
2023/08/18 00:48:12;;;;;;;;;36.67;30.67;;;;;;;;5049500;28;45351;-79
2023/08/18 00:50:37;;;;;;;;;39.67;31.67;;;;;;;;5036583;28;46943;-79
2023/08/18 00:53:03;;;;;;;;;38.00;33.00;;;;;;;;5052555;28;45773;-80
2023/08/18 00:55:30;;;;;;;;;35.67;30.00;;;;;;;;5029249;28;45634;-79
2023/08/18 00:57:56;;;;;;;;;37.33;33.00;;;;;;;;5031947;28;45498;-79
2023/08/18 01:00:23;;;;;;;;;34.00;30.67;;;;;;;;5043146;28;45445;-78
2023/08/18 01:02:49;;;;;;;;;38.67;32.00;;;;;;;;5045431;28;45804;-79
2023/08/18 01:05:14;;;;;;;;;39.67;30.67;;;;;;;;5024306;28;45444;-79
2023/08/18 01:07:40;;;;;;;;;34.67;32.33;;;;;;;;5053800;28;45398;-80
2023/08/18 01:10:05;;;;;;;;;35.67;30.67;;;;;;;;5055840;28;45629;-79
2023/08/18 01:12:36;;;;;;;;;38.00;33.33;;;;;;;;5038177;28;46049;-79
2023/08/18 01:15:08;;;;;;;;;34.67;32.33;;;;;;;;5043330;28;45525;-78
2023/08/18 01:17:49;;;;;;;;;35.67;30.33;;;;;;;;5050811;28;45471;-78
2023/08/18 01:20:15;;;;;;;;;37.00;32.00;;;;;;;;5032950;28;46393;-80
2023/08/18 01:22:41;;;;;;;;;26.00;25.33;;;;;;;;5040482;28;47251;-79
2023/08/18 01:25:07;;;;;;;;;35.67;32.00;;;;;;;;5055537;28;45402;-79
2023/08/18 01:27:33;;;;;;;;;33.33;27.00;;;;;;;;5059479;28;45479;-81
2023/08/18 01:29:59;;;;;;;;;32.67;30.33;;;;;;;;5053864;28;45793;-78
2023/08/18 01:32:33;;;;;;;;;35.00;31.33;;;;;;;;5048720;28;46113;-79
2023/08/18 01:35:04;;;;;;;;;27.33;26.33;;;;;;;;5033131;28;45481;-79
2023/08/18 01:37:30;;;;;;;;;36.67;32.00;;;;;;;;5056038;28;45794;-79
2023/08/18 01:39:56;;;;;;;;;32.67;31.00;;;;;;;;5053114;28;45792;-78
2023/08/18 01:42:22;;;;;;;;;34.67;29.33;;;;;;;;5037259;28;46456;-80
2023/08/18 01:44:47;;;;;;;;;34.00;30.67;;;;;;;;5045026;28;45405;-79
2023/08/18 01:47:12;;;;;;;;;41.00;30.33;;;;;;;;5039060;28;45710;-78
2023/08/18 01:49:38;;;;;;;;;40.33;34.33;;;;;;;;5027893;28;45432;-79
2023/08/18 01:52:03;;;;;;;;;39.67;33.33;;;;;;;;5045788;28;45481;-78
2023/08/18 01:54:28;;;;;;;;;37.33;32.33;;;;;;;;5041755;28;45380;-80
2023/08/18 01:56:54;;;;;;;;;36.00;29.33;;;;;;;;5044688;28;45402;-79
2023/08/18 01:59:19;;;;;;;;;41.33;32.33;;;;;;;;5038793;28;45768;-79
2023/08/18 02:01:44;;;;;;;;;40.33;34.67;;;;;;;;5042578;28;46927;-79
2023/08/18 02:04:10;;;;;;;;;34.00;30.33;;;;;;;;5055318;28;45815;-79
2023/08/18 02:06:35;;;;;;;;;35.00;33.00;;;;;;;;5055243;28;45324;-79
2023/08/18 02:09:00;;;;;;;;;41.67;32.33;;;;;;;;5042841;28;45463;-80
2023/08/18 02:11:25;;;;;;;;;40.67;34.33;;;;;;;;5035164;28;48599;-79
2023/08/18 02:13:51;;;;;;;;;41.67;31.67;;;;;;;;5045559;28;45418;-80
2023/08/18 02:16:16;;;;;;;;;34.00;30.00;;;;;;;;5056614;28;45684;-79
2023/08/18 02:18:41;;;;;;;;;37.00;32.00;;;;;;;;5056007;28;45393;-79
2023/08/18 02:21:07;;;;;;;;;41.33;35.33;;;;;;;;5028673;28;46964;-79
2023/08/18 02:23:33;;;;;;;;;35.33;30.67;;;;;;;;5029621;28;45382;-79
2023/08/18 02:25:59;;;;;;;;;25.33;23.67;;;;;;;;5014918;28;45598;-77
2023/08/18 02:28:24;;;;;;;;;36.33;34.33;;;;;;;;5017630;28;45553;-78
2023/08/18 02:30:57;;;;;;;;;34.67;29.00;;;;;;;;5027515;28;47080;-78
2023/08/18 02:33:23;;;;;;;;;39.67;33.00;;;;;;;;5035320;28;45505;-79
2023/08/18 02:35:48;;;;;;;;;39.33;35.00;;;;;;;;5023015;28;45823;-79
2023/08/18 02:38:15;;;;;;;;;36.67;32.67;;;;;;;;5041815;28;45408;-79
2023/08/18 02:40:40;;;;;;;;;40.33;35.33;;;;;;;;5034700;28;45716;-78
2023/08/18 02:43:05;;;;;;;;;48.00;38.00;;;;;;;;5029058;28;45805;-78
2023/08/18 02:45:30;;;;;;;;;44.00;36.33;;;;;;;;5023433;28;45467;-78
2023/08/18 02:47:57;;;;;;;;;49.67;36.67;;;;;;;;5035444;28;45671;-79
2023/08/18 02:50:22;;;;;;;;;44.33;32.67;;;;;;;;5022321;28;45425;-80
2023/08/18 02:52:47;;;;;;;;;43.33;34.67;;;;;;;;5005911;28;45511;-78
2023/08/18 02:55:12;;;;;;;;;40.67;32.33;;;;;;;;5016699;28;46313;-79
2023/08/18 02:57:38;;;;;;;;;40.00;34.33;;;;;;;;5004021;28;45429;-80
2023/08/18 03:00:03;;;;;;;;;43.67;35.00;;;;;;;;5007808;28;45349;-79
2023/08/18 03:02:31;;;;;;;;;39.33;32.33;;;;;;;;5015985;28;45387;-80
2023/08/18 03:04:56;;;;;;;;;43.00;37.00;;;;;;;;5019913;28;45526;-77
2023/08/18 03:07:22;;;;;;;;;47.67;36.00;;;;;;;;5025199;28;45789;-81
2023/08/18 03:09:47;;;;;;;;;41.00;34.67;;;;;;;;5025191;28;45866;-79
2023/08/18 03:12:12;;;;;;;;;36.00;30.67;;;;;;;;5031002;28;45696;-78
2023/08/18 03:14:37;;;;;;;;;46.00;33.33;;;;;;;;5028778;28;44871;-77
2023/08/18 03:17:03;;;;;;;;;44.00;35.00;;;;;;;;5031338;28;45704;-80
2023/08/18 03:19:28;;;;;;;;;47.33;34.33;;;;;;;;5030013;28;45264;-79
2023/08/18 03:21:53;;;;;;;;;44.00;34.67;;;;;;;;5052945;28;45486;-79
2023/08/18 03:24:19;;;;;;;;;47.33;35.67;;;;;;;;5059175;28;45422;-80
2023/08/18 03:26:44;;;;;;;;;45.00;34.67;;;;;;;;5060505;28;45491;-81
2023/08/18 03:29:09;;;;;;;;;37.00;34.00;;;;;;;;5060567;28;45466;-78
2023/08/18 03:31:34;;;;;;;;;46.33;39.33;;;;;;;;5062797;28;45399;-79
2023/08/18 03:34:00;;;;;;;;;41.00;32.33;;;;;;;;5042799;28;45626;-78
2023/08/18 03:36:25;;;;;;;;;45.67;36.00;;;;;;;;5058771;28;45629;-81
2023/08/18 03:38:50;;;;;;;;;40.33;32.33;;;;;;;;5054684;28;45403;-78
2023/08/18 03:41:16;;;;;;;;;50.33;35.00;;;;;;;;5041563;28;45422;-80
2023/08/18 03:43:41;;;;;;;;;41.00;34.00;;;;;;;;5029116;28;45333;-80
2023/08/18 03:46:20;;;;;;;;;44.33;35.67;;;;;;;;5059358;28;45326;-78
2023/08/18 03:48:45;;;;;;;;;38.00;33.00;;;;;;;;5058294;28;45331;-79
2023/08/18 03:51:10;;;;;;;;;38.00;31.00;;;;;;;;5044249;28;45726;-80
2023/08/18 03:53:37;;;;;;;;;43.67;34.00;;;;;;;;5049837;28;45587;-77
2023/08/18 03:56:02;;;;;;;;;44.00;35.33;;;;;;;;5036680;28;46071;-79
2023/08/18 03:58:27;;;;;;;;;41.67;36.33;;;;;;;;5025394;28;46605;-79
2023/08/18 04:01:06;;;;;;;;;40.00;32.67;;;;;;;;5051687;28;45570;-81
2023/08/18 04:03:34;;;;;;;;;41.00;32.67;;;;;;;;5048011;28;44743;-80
2023/08/18 04:05:59;;;;;;;;;45.33;36.00;;;;;;;;5042539;28;47387;-79
2023/08/18 04:08:25;;;;;;;;;44.33;34.00;;;;;;;;5041163;28;48615;-78
2023/08/18 04:10:50;;;;;;;;;36.33;33.00;;;;;;;;5044350;28;45383;-80
2023/08/18 04:13:15;;;;;;;;;47.00;36.33;;;;;;;;5040159;28;45477;-78
2023/08/18 04:15:41;;;;;;;;;42.00;35.33;;;;;;;;5042591;28;45423;-78
2023/08/18 04:18:07;;;;;;;;;45.67;37.00;;;;;;;;5038569;28;46310;-78
2023/08/18 04:20:32;;;;;;;;;40.00;34.33;;;;;;;;5034483;28;45616;-80
2023/08/18 04:22:57;;;;;;;;;39.00;33.67;;;;;;;;5050830;28;45393;-82
2023/08/18 04:25:23;;;;;;;;;49.00;38.67;;;;;;;;5073377;28;45057;-82
2023/08/18 04:27:48;;;;;;;;;40.00;35.33;;;;;;;;5070353;28;45374;-83
2023/08/18 04:30:13;;;;;;;;;46.67;36.67;;;;;;;;5038408;28;44918;-83
2023/08/18 04:32:39;;;;;;;;;51.33;37.67;;;;;;;;5053310;28;44775;-83
2023/08/18 04:35:05;;;;;;;;;47.00;35.67;;;;;;;;5055955;28;45859;-84
2023/08/18 04:37:30;;;;;;;;;49.33;40.00;;;;;;;;5067888;28;45166;-84
2023/08/18 04:39:56;;;;;;;;;50.67;41.33;;;;;;;;5060583;28;45379;-83
2023/08/18 04:42:21;;;;;;;;;44.00;35.67;;;;;;;;5052603;28;45774;-80
2023/08/18 04:44:46;;;;;;;;;50.33;41.67;;;;;;;;5039334;28;45941;-80
2023/08/18 04:47:12;;;;;;;;;50.00;40.67;;;;;;;;5057794;28;46603;-79
2023/08/18 04:49:37;;;;;;;;;44.00;37.00;;;;;;;;5054860;28;45788;-80
2023/08/18 04:52:07;;;;;;;;;46.67;37.67;;;;;;;;5052461;28;45463;-80
2023/08/18 04:54:33;;;;;;;;;50.00;35.00;;;;;;;;5050976;28;45672;-79
2023/08/18 04:57:01;;;;;;;;;41.67;35.67;;;;;;;;5052724;28;45545;-80
2023/08/18 04:59:29;;;;;;;;;36.33;33.00;;;;;;;;5045164;28;45746;-80
2023/08/18 05:01:54;;;;;;;;;44.67;35.67;;;;;;;;5051524;28;45361;-79
2023/08/18 05:04:20;;;;;;;;;42.00;34.00;;;;;;;;5050187;28;45462;-80
2023/08/18 05:06:45;;;;;;;;;40.33;35.33;;;;;;;;5049390;28;45454;-81
2023/08/18 05:09:10;;;;;;;;;49.00;37.00;;;;;;;;5047890;28;45336;-80
2023/08/18 05:11:35;;;;;;;;;51.00;39.00;;;;;;;;5054898;28;45448;-79
2023/08/18 05:14:01;;;;;;;;;48.00;37.33;;;;;;;;5058565;28;45349;-79
2023/08/18 05:16:26;;;;;;;;;41.00;36.00;;;;;;;;5048571;28;45766;-77
2023/08/18 05:18:51;;;;;;;;;48.33;35.67;;;;;;;;5029819;28;45873;-79
2023/08/18 05:21:16;;;;;;;;;42.00;38.00;;;;;;;;5040369;28;45802;-79
2023/08/18 05:23:42;;;;;;;;;43.33;35.67;;;;;;;;5033230;28;47643;-79
2023/08/18 05:26:07;;;;;;;;;42.33;34.33;;;;;;;;5054389;28;45631;-79
2023/08/18 05:28:32;;;;;;;;;41.00;35.00;;;;;;;;5023657;28;45836;-78
2023/08/18 05:30:58;;;;;;;;;37.33;34.00;;;;;;;;5045366;28;45466;-80
2023/08/18 05:33:23;;;;;;;;;47.00;34.67;;;;;;;;5064279;28;45576;-79
2023/08/18 05:35:49;;;;;;;;;35.33;30.00;;;;;;;;5062782;28;46187;-79
2023/08/18 05:38:14;;;;;;;;;42.67;36.33;;;;;;;;5056083;28;45792;-79
2023/08/18 05:40:44;;;;;;;;;37.50;35.00;;;;;;;;5037465;28;45747;-79
2023/08/18 05:43:09;;;;;;;;;38.00;32.67;;;;;;;;5055383;28;45438;-77
2023/08/18 05:45:37;;;;;;;;;43.67;34.33;;;;;;;;5035660;28;47940;-78
2023/08/18 05:48:04;;;;;;;;;47.33;36.33;;;;;;;;5054890;28;45594;-78
2023/08/18 05:50:29;;;;;;;;;53.00;35.33;;;;;;;;5055295;28;45825;-77
2023/08/18 05:52:54;;;;;;;;;41.67;34.00;;;;;;;;5026902;28;46067;-78
2023/08/18 05:55:19;;;;;;;;;38.67;33.00;;;;;;;;5027409;28;47825;-80
2023/08/18 05:57:45;;;;;;;;;48.00;35.67;;;;;;;;5046263;28;45649;-79
2023/08/18 06:00:12;;;;;;;;;43.00;34.00;;;;;;;;5036913;28;45337;-79
2023/08/18 06:02:38;;;;;;;;;42.67;35.33;;;;;;;;5036175;28;45522;-80
2023/08/18 06:05:04;;;;;;;;;36.33;32.33;;;;;;;;5037778;28;45518;-80
2023/08/18 06:07:29;;;;;;;;;37.67;31.67;;;;;;;;5048725;28;45383;-79
2023/08/18 06:09:54;;;;;;;;;40.00;30.33;;;;;;;;5026392;28;45313;-79
2023/08/18 06:12:20;;;;;;;;;33.33;31.00;;;;;;;;5029866;28;45965;-79
2023/08/18 06:14:45;;;;;;;;;36.33;30.33;;;;;;;;5054394;28;45558;-78
2023/08/18 06:17:10;;;;;;;;;38.00;32.00;;;;;;;;5048915;28;45533;-78
2023/08/18 06:19:35;;;;;;;;;34.67;30.00;;;;;;;;5041721;28;45376;-78
2023/08/18 06:22:00;;;;;;;;;34.67;30.67;;;;;;;;5009710;28;46122;-81
2023/08/18 06:24:25;;;;;;;;;33.67;31.00;;;;;;;;5034213;28;47159;-78
2023/08/18 06:26:51;;;;;;;;;35.33;28.67;;;;;;;;5030173;28;45578;-79
2023/08/18 06:29:16;;;;;;;;;27.33;27.33;;;;;;;;5039494;28;46018;-79
2023/08/18 06:31:41;;;;;;;;;37.00;33.33;;;;;;;;5023795;28;47260;-80
2023/08/18 06:34:06;;;;;;;;;30.00;26.33;;;;;;;;5038723;28;46622;-78
2023/08/18 06:36:32;;;;;;;;;39.67;32.00;;;;;;;;5051651;28;45735;-78
2023/08/18 06:38:57;;;;;;;;;36.00;30.33;;;;;;;;5018233;28;45841;-80
2023/08/18 06:41:22;;;;;;;;;32.67;28.67;;;;;;;;5035387;28;45758;-79
2023/08/18 06:43:48;;;;;;;;;36.33;31.00;;;;;;;;5044266;28;45794;-79
2023/08/18 06:46:16;;;;;;;;;32.67;29.33;;;;;;;;5031558;28;45819;-80
2023/08/18 06:48:41;;;;;;;;;32.33;30.67;;;;;;;;5027701;28;46466;-79
2023/08/18 06:51:06;;;;;;;;;35.33;30.67;;;;;;;;5046023;28;45542;-81
2023/08/18 06:53:31;;;;;;;;;38.00;33.33;;;;;;;;5020931;28;47012;-78
2023/08/18 06:55:57;;;;;;;;;37.00;32.33;;;;;;;;5031179;28;45548;-80
2023/08/18 06:58:22;;;;;;;;;33.67;31.33;;;;;;;;5021753;28;45519;-79
2023/08/18 07:00:47;;;;;;;;;29.33;28.67;;;;;;;;5051191;28;45470;-80
2023/08/18 07:03:12;;;;;;;;;38.67;32.33;;;;;;;;5028540;28;48283;-80
2023/08/18 07:05:38;;;;;;;;;39.33;30.33;;;;;;;;5034109;28;45372;-79
2023/08/18 07:08:03;;;;;;;;;40.33;33.67;;;;;;;;5031340;28;45340;-81
2023/08/18 07:10:28;;;;;;;;;34.67;27.67;;;;;;;;5051212;28;45383;-79
2023/08/18 07:12:54;;;;;;;;;37.00;29.00;;;;;;;;5041193;28;45520;-79
2023/08/18 07:15:19;;;;;;;;;30.67;28.33;;;;;;;;5054741;28;45360;-79
2023/08/18 07:17:44;;;;;;;;;30.67;30.00;;;;;;;;5040451;28;45377;-78
2023/08/18 07:20:10;;;;;;;;;47.67;33.67;;;;;;;;5051423;28;45545;-78
2023/08/18 07:22:35;;;;;;;;;36.67;32.67;;;;;;;;5052750;28;45812;-78
2023/08/18 07:25:01;;;;;;;;;41.00;33.00;;;;;;;;5033519;28;45525;-79
2023/08/18 07:27:26;;;;;;;;;35.00;32.00;;;;;;;;5047880;28;45492;-79
2023/08/18 07:29:51;;;;;;;;;35.33;28.33;;;;;;;;5043802;28;45715;-79
2023/08/18 07:32:16;;;;;;;;;36.00;34.00;;;;;;;;5048026;28;45779;-78
2023/08/18 07:34:42;;;;;;;;;37.00;32.67;;;;;;;;5029437;28;46545;-81
2023/08/18 07:37:07;;;;;;;;;28.33;28.00;;;;;;;;5036663;28;45737;-80
2023/08/18 07:39:32;;;;;;;;;39.33;33.67;;;;;;;;5049259;28;45743;-79
2023/08/18 07:41:57;;;;;;;;;31.67;28.33;;;;;;;;5047533;28;45661;-80
2023/08/18 07:44:23;;;;;;;;;31.67;27.33;;;;;;;;5024980;28;45934;-81
2023/08/18 07:46:48;;;;;;;;;32.67;29.00;;;;;;;;5045517;28;45995;-81
2023/08/18 07:49:13;;;;;;;;;31.33;27.00;;;;;;;;5048156;28;45705;-80
2023/08/18 07:51:39;;;;;;;;;43.00;30.67;;;;;;;;5037676;28;46647;-79
2023/08/18 07:54:05;;;;;;;;;38.00;30.67;;;;;;;;5046296;28;45324;-79
2023/08/18 07:56:30;;;;;;;;;33.33;29.00;;;;;;;;5036977;28;45429;-78
2023/08/18 07:58:55;;;;;;;;;33.00;32.67;;;;;;;;5041724;28;46964;-79
2023/08/18 08:01:21;;;;;;;;;34.00;32.67;;;;;;;;5057134;28;45414;-80
2023/08/18 08:03:46;;;;;;;;;30.00;28.00;;;;;;;;5047824;28;45423;-78
2023/08/18 08:06:11;;;;;;;;;37.67;31.33;;;;;;;;5045327;28;45653;-79
2023/08/18 08:08:37;;;;;;;;;32.67;26.67;;;;;;;;5031367;28;45784;-79
2023/08/18 08:11:02;;;;;;;;;32.00;27.33;;;;;;;;5050218;28;46219;-78
2023/08/18 08:13:27;;;;;;;;;30.00;27.00;;;;;;;;5037524;28;45608;-79
2023/08/18 08:15:52;;;;;;;;;29.50;26.50;;;;;;;;5037795;28;45356;-79
2023/08/18 08:18:18;;;;;;;;;36.00;31.00;;;;;;;;5055703;28;45597;-80
2023/08/18 08:20:43;;;;;;;;;27.33;26.33;;;;;;;;5053968;28;46219;-80
2023/08/18 08:23:08;;;;;;;;;26.33;23.67;;;;;;;;5037033;28;45412;-78
2023/08/18 08:25:34;;;;;;;;;33.33;30.33;;;;;;;;5051030;28;45865;-79
2023/08/18 08:27:59;;;;;;;;;31.67;31.33;;;;;;;;5046191;28;45427;-80
2023/08/18 08:30:25;;;;;;;;;25.00;25.00;;;;;;;;5030355;28;46029;-79
2023/08/18 08:32:50;;;;;;;;;31.33;28.67;;;;;;;;5045637;28;45374;-79
2023/08/18 08:35:16;;;;;;;;;32.67;27.67;;;;;;;;5043911;28;45817;-79
2023/08/18 08:37:41;;;;;;;;;26.67;24.33;;;;;;;;5047766;28;45801;-80
2023/08/18 08:40:10;;;;;;;;;28.00;26.00;;;;;;;;5042662;28;46720;-77
2023/08/18 08:42:35;;;;;;;;;26.00;24.67;;;;;;;;5052373;28;45794;-79
2023/08/18 08:45:00;;;;;;;;;29.67;24.33;;;;;;;;5055920;28;45570;-77
2023/08/18 08:47:26;;;;;;;;;28.33;26.00;;;;;;;;5055890;28;45537;-78
2023/08/18 08:49:58;;;;;;;;;26.67;24.00;;;;;;;;5037875;28;47289;-79
2023/08/18 08:52:24;;;;;;;;;22.00;20.33;;;;;;;;5049748;28;45787;-79
2023/08/18 08:54:53;;;;;;;;;26.67;22.33;;;;;;;;5047278;28;45379;-79
2023/08/18 08:57:20;;;;;;;;;22.25;21.75;;;;;;;;5046228;28;45377;-79
2023/08/18 08:59:46;;;;;;;;;21.00;21.00;;;;;;;;5023722;28;46830;-81
2023/08/18 09:02:11;;;;;;;;;19.75;17.75;;;;;;;;5047358;28;45870;-80
2023/08/18 09:04:36;;;;;;;;;20.00;19.00;;;;;;;;5033328;28;45393;-78
2023/08/18 09:07:02;;;;;;;;;20.67;20.67;;;;;;;;5049116;28;45562;-79
2023/08/18 09:09:27;;;;;;;;;26.33;22.67;;;;;;;;5027050;28;45833;-78
2023/08/18 09:11:57;;;;;;;;;21.67;20.00;;;;;;;;5053545;28;45848;-78
2023/08/18 09:14:43;;;;;;;;;21.33;19.00;;;;;;;;5041317;28;45696;-79
2023/08/18 09:17:08;;;;;;;;;21.00;20.00;;;;;;;;5043643;28;45842;-80
2023/08/18 09:19:36;;;;;;;;;21.33;20.67;;;;;;;;5028667;28;47309;-79
2023/08/18 09:22:24;;;;;;;;;18.25;18.25;;;;;;;;5048371;28;45618;-80
2023/08/18 09:24:56;;;;;;;;;20.00;19.00;;;;;;;;5029272;28;45814;-79
2023/08/18 09:27:22;;;;;;;;;18.67;18.67;;;;;;;;5040406;28;46054;-79
2023/08/18 09:29:52;;;;;;;;;19.33;18.00;;;;;;;;5047914;28;45852;-81
2023/08/18 09:32:31;;;;;;;;;19.00;19.00;;;;;;;;5056114;28;45402;-80
2023/08/18 09:34:56;;;;;;;;;19.33;17.67;;;;;;;;5054916;28;45490;-80
2023/08/18 09:37:48;;;;;;;;;23.33;22.00;;;;;;;;5042868;28;46139;-78
2023/08/18 09:40:32;;;;;;;;;20.33;19.00;;;;;;;;5038734;28;45459;-80
2023/08/18 09:43:04;;;;;;;;;19.75;17.25;;;;;;;;5031150;28;45293;-81
2023/08/18 09:45:57;;;;;;;;;18.67;18.33;;;;;;;;5044257;28;45328;-79
2023/08/18 09:48:38;;;;;;;;;18.67;18.33;;;;;;;;5058243;28;45804;-80
2023/08/18 09:51:08;;;;;;;;;17.00;16.67;;;;;;;;5010053;28;47170;-80
2023/08/18 09:53:39;;;;;;;;;17.75;15.25;;;;;;;;5041323;28;45550;-79
2023/08/18 09:56:14;;;;;;;;;20.00;17.25;;;;;;;;5032060;28;45719;-81
2023/08/18 09:58:48;;;;;;;;;22.67;21.33;;;;;;;;5020490;28;45786;-81
2023/08/18 10:01:20;;;;;;;;;20.00;15.50;;;;;;;;5051062;28;47348;-81
2023/08/18 10:03:48;;;;;;;;;16.75;16.00;;;;;;;;5024541;28;45745;-80
2023/08/18 10:06:16;;;;;;;;;15.75;14.25;;;;;;;;5046208;28;45413;-81
2023/08/18 10:08:42;;;;;;;;;18.50;18.50;;;;;;;;5030563;28;45468;-80
2023/08/18 10:11:10;;;;;;;;;20.33;20.33;;;;;;;;5044694;28;46233;-80
2023/08/18 10:13:40;;;;;;;;;19.67;17.00;;;;;;;;5018912;28;45921;-79
2023/08/18 10:16:09;;;;;;;;;14.25;14.25;;;;;;;;5045702;28;45405;-80
2023/08/18 10:18:37;;;;;;;;;16.25;15.00;;;;;;;;5045231;28;45522;-83
2023/08/18 10:21:03;;;;;;;;;17.33;15.67;;;;;;;;5024226;28;47269;-80
2023/08/18 10:23:29;;;;;;;;;19.33;18.00;;;;;;;;5031567;28;45378;-81
2023/08/18 10:25:57;;;;;;;;;11.67;11.33;;;;;;;;5019390;28;45381;-82
2023/08/18 10:28:27;;;;;;;;;16.75;16.00;;;;;;;;5017228;28;45495;-80
2023/08/18 10:31:05;;;;;;;;;15.75;13.25;;;;;;;;5021545;28;47992;-80
2023/08/18 10:33:37;;;;;;;;;17.00;15.50;;;;;;;;5056527;28;45514;-81
2023/08/18 10:36:04;;;;;;;;;17.33;16.33;;;;;;;;5051367;28;45333;-82
2023/08/18 10:38:35;;;;;;;;;18.00;17.00;;;;;;;;5052226;28;45516;-80
2023/08/18 10:41:01;;;;;;;;;17.25;15.75;;;;;;;;5045168;28;45494;-79
2023/08/18 10:43:40;;;;;;;;;18.75;14.00;;;;;;;;5050933;28;45679;-79
2023/08/18 10:46:09;;;;;;;;;18.00;14.25;;;;;;;;5015271;28;45297;-78
2023/08/18 10:48:34;;;;;;;;;16.00;15.50;;;;;;;;5035644;28;45758;-80
2023/08/18 10:51:00;;;;;;;;;17.00;15.25;;;;;;;;5027939;28;47717;-80
2023/08/18 10:53:26;;;;;;;;;15.50;14.00;;;;;;;;5046913;28;45572;-79
2023/08/18 10:55:59;;;;;;;;;15.00;14.75;;;;;;;;5044214;28;45470;-79
2023/08/18 10:58:25;;;;;;;;;12.00;12.00;;;;;;;;5064686;28;45356;-81
2023/08/18 11:00:50;;;;;;;;;20.50;16.50;;;;;;;;5052476;28;46159;-79
2023/08/18 11:03:16;;;;;;;;;16.50;14.25;;;;;;;;5060487;28;44824;-81
2023/08/18 11:05:41;;;;;;;;;12.25;11.50;;;;;;;;5050092;28;45639;-83
2023/08/18 11:08:09;;;;;;;;;14.25;14.25;;;;;;;;5050531;28;45292;-83
2023/08/18 11:10:36;;;;;;;;;14.25;13.50;;;;;;;;5030460;28;47224;-84
2023/08/18 11:13:03;;;;;;;;;16.50;14.50;;;;;;;;5064474;28;45414;-83
2023/08/18 11:15:29;;;;;;;;;15.50;15.50;;;;;;;;5034546;28;45254;-84
2023/08/18 11:17:55;;;;;;;;;12.50;11.50;;;;;;;;5032557;28;46669;-85
2023/08/18 11:20:21;;;;;;;;;14.00;12.67;;;;;;;;5040130;28;47377;-84
2023/08/18 11:22:48;;;;;;;;;13.25;13.25;;;;;;;;5064191;28;44770;-83
2023/08/18 11:25:14;;;;;;;;;19.00;14.75;;;;;;;;5046415;28;45792;-83
2023/08/18 11:27:44;;;;;;;;;13.25;13.25;;;;;;;;5044771;28;45880;-86
2023/08/18 11:30:10;;;;;;;;;18.00;15.00;;;;;;;;5055344;28;45582;-84
2023/08/18 11:32:37;;;;;;;;;19.67;15.67;;;;;;;;5041887;28;45424;-84
2023/08/18 11:35:04;;;;;;;;;18.25;15.25;;;;;;;;5045523;28;45269;-84
2023/08/18 11:37:29;;;;;;;;;15.67;15.67;;;;;;;;5052437;28;45407;-83
2023/08/18 11:39:55;;;;;;;;;17.75;14.00;;;;;;;;5042167;28;46145;-84
2023/08/18 11:42:21;;;;;;;;;16.00;13.75;;;;;;;;5035820;28;44722;-84
2023/08/18 11:44:49;;;;;;;;;16.50;14.50;;;;;;;;5058260;28;45858;-84
2023/08/18 11:47:20;;;;;;;;;13.00;13.00;;;;;;;;5069697;28;46239;-84
2023/08/18 11:49:45;;;;;;;;;19.00;15.25;;;;;;;;5039864;28;46985;-85
2023/08/18 11:52:13;;;;;;;;;14.25;14.25;;;;;;;;5062793;28;45852;-81
2023/08/18 11:54:38;;;;;;;;;18.67;16.33;;;;;;;;5028821;28;45545;-81
2023/08/18 11:57:05;;;;;;;;;16.00;15.00;;;;;;;;5044684;28;45488;-80
2023/08/18 11:59:30;;;;;;;;;18.75;15.25;;;;;;;;5052225;28;46432;-79
2023/08/18 12:01:56;;;;;;;;;13.00;10.00;;;;;;;;5058312;28;45517;-80
2023/08/18 12:04:25;;;;;;;;;16.25;14.75;;;;;;;;5052055;28;45422;-78
2023/08/18 12:06:50;;;;;;;;;15.25;14.25;;;;;;;;5039062;28;45981;-79
2023/08/18 12:09:16;;;;;;;;;16.00;16.00;;;;;;;;5060634;28;45753;-79
2023/08/18 12:11:41;;;;;;;;;18.00;15.67;;;;;;;;5041379;28;45817;-82
2023/08/18 12:14:06;;;;;;;;;14.50;12.75;;;;;;;;5041815;28;45449;-79
2023/08/18 12:16:32;;;;;;;;;13.75;11.75;;;;;;;;5035717;28;46015;-78
2023/08/18 12:18:58;;;;;;;;;15.67;14.67;;;;;;;;5056597;28;45761;-80
2023/08/18 12:21:23;;;;;;;;;18.00;14.75;;;;;;;;5052383;28;45458;-79
2023/08/18 12:23:48;;;;;;;;;14.75;13.25;;;;;;;;5048125;28;45429;-80
2023/08/18 12:26:15;;;;;;;;;13.75;13.00;;;;;;;;5042638;28;45565;-80
2023/08/18 12:28:40;;;;;;;;;13.75;12.50;;;;;;;;5055801;28;45579;-80
2023/08/18 12:31:06;;;;;;;;;16.25;14.00;;;;;;;;5034128;28;45832;-80
2023/08/18 12:33:31;;;;;;;;;10.25;10.25;;;;;;;;5056395;28;45834;-80
2023/08/18 12:35:56;;;;;;;;;13.00;10.00;;;;;;;;5037988;28;46408;-78
2023/08/18 12:38:22;;;;;;;;;15.75;11.50;;;;;;;;5058732;28;46188;-80
2023/08/18 12:40:48;;;;;;;;;12.25;11.00;;;;;;;;5051673;28;45424;-79
2023/08/18 12:43:13;;;;;;;;;9.75;9.00;;;;;;;;5046346;28;45681;-79
2023/08/18 12:45:38;;;;;;;;;15.25;10.25;;;;;;;;5055536;28;45438;-80
2023/08/18 12:48:04;;;;;;;;;12.00;12.00;;;;;;;;5052391;28;47364;-80
2023/08/18 12:50:29;;;;;;;;;10.50;9.50;;;;;;;;5053553;28;45131;-80
2023/08/18 12:52:55;;;;;;;;;13.50;11.75;;;;;;;;5063145;28;45735;-80
2023/08/18 12:55:20;;;;;;;;;12.25;12.00;;;;;;;;5033150;28;45968;-81
2023/08/18 12:57:46;;;;;;;;;12.75;11.00;;;;;;;;5064104;28;45561;-80
2023/08/18 13:00:12;;;;;;;;;12.50;12.00;;;;;;;;5063541;28;44800;-79
2023/08/18 13:02:37;;;;;;;;;10.25;10.25;;;;;;;;5055308;28;45689;-80
2023/08/18 13:05:02;;;;;;;;;9.00;9.00;;;;;;;;5063402;28;45865;-80
2023/08/18 13:07:28;;;;;;;;;14.00;11.25;;;;;;;;5051384;28;45610;-81
2023/08/18 13:09:53;;;;;;;;;11.25;11.25;;;;;;;;5044667;28;45475;-79
2023/08/18 13:12:19;;;;;;;;;13.75;12.50;;;;;;;;5056067;28;45496;-81
2023/08/18 13:14:44;;;;;;;;;13.00;11.25;;;;;;;;5025711;28;45498;-79
2023/08/18 13:17:09;;;;;;;;;12.25;12.25;;;;;;;;5052259;28;45523;-79
2023/08/18 13:19:34;;;;;;;;;13.50;9.50;;;;;;;;5054597;28;45457;-80
2023/08/18 13:22:00;;;;;;;;;10.75;9.50;;;;;;;;5053281;28;45505;-80
2023/08/18 13:24:25;;;;;;;;;1.50;0.00;;;;;;;;5031109;28;45508;-81
2023/08/18 13:26:50;;;;;;;;;11.00;11.00;;;;;;;;5026234;28;46361;-80
2023/08/18 13:29:15;;;;;;;;;9.50;9.50;;;;;;;;5025921;28;45884;-80
2023/08/18 13:31:41;;;;;;;;;12.50;12.50;;;;;;;;5035567;28;45403;-81
2023/08/18 13:34:06;;;;;;;;;11.25;11.25;;;;;;;;5060146;28;45987;-80
2023/08/18 13:36:31;;;;;;;;;11.25;9.75;;;;;;;;5059148;28;46273;-80
2023/08/18 13:38:57;;;;;;;;;13.25;12.00;;;;;;;;5061103;28;45541;-80
2023/08/18 13:41:22;;;;;;;;;13.00;12.00;;;;;;;;5043505;28;45340;-80
2023/08/18 13:43:47;;;;;;;;;12.25;11.00;;;;;;;;5050052;28;45332;-79
2023/08/18 13:46:12;;;;;;;;;14.75;11.75;;;;;;;;5058861;28;45662;-80
2023/08/18 13:48:37;;;;;;;;;11.50;10.25;;;;;;;;5041347;28;45708;-80
2023/08/18 13:51:03;;;;;;;;;12.50;11.00;;;;;;;;5052676;28;45396;-79
2023/08/18 13:53:32;;;;;;;;;17.00;13.00;;;;;;;;5048972;28;45419;-78
2023/08/18 13:55:57;;;;;;;;;12.25;10.00;;;;;;;;5058669;28;46162;-80
2023/08/18 13:58:23;;;;;;;;;15.00;15.00;;;;;;;;5053138;28;45416;-81
2023/08/18 14:00:48;;;;;;;;;11.25;10.25;;;;;;;;5052583;28;45735;-81
2023/08/18 14:03:13;;;;;;;;;16.25;12.00;;;;;;;;5050053;28;45467;-79
2023/08/18 14:05:42;;;;;;;;;11.00;11.00;;;;;;;;5055598;28;45890;-79
2023/08/18 14:08:07;;;;;;;;;11.00;11.00;;;;;;;;5032353;28;45450;-79
2023/08/18 14:10:33;;;;;;;;;10.25;10.25;;;;;;;;5025194;28;45296;-79
2023/08/18 14:12:59;;;;;;;;;11.50;10.25;;;;;;;;5046432;28;45479;-82
2023/08/18 14:15:24;;;;;;;;;12.75;10.00;;;;;;;;5040827;28;46277;-83